Terminal Aerodrome Forecast
Issued by NWS Wilmington, OH

Current Version | Previous Version | Graphics & Text | Print | Product List | Glossary On
Versions: 1 2 3 4 5 6 7 8 9 10 11 12 13 14 15 16 17 18 19 20 21 22
000
FTUS41 KILN 312235 AAB
TAFDAY
TAF AMD
KDAY 312235Z 3123/0118 26013KT P6SM VCTS BKN060CB
      TEMPO 3123/3124 29013G25KT 3SM -TSRA BR BKN035CB
     FM010100 26005KT P6SM FEW080
     FM011500 29008KT P6SM SCT060=

USA.gov is the U.S. government's official web portal to all federal, state and local government web resources and services.